Řízení letového provozu České republiky
Letiste: LKKB Aktualizace: 12.11.2018 20:01:06  UTC
 METAR LKKB 12.11. 20:00 ...
METAR LKKB 122000Z 05003KT 5000 BR OVC013 09/09 Q1023 NOSIG RMK GRN GRN=
 TAF LKKB 12.11. 17:00 ...
TAF LKKB 121700Z 1218/1318 28004KT 7000 OVC020      TEMPO 1218/1221 5000 BR OVC016      BECMG 1221/1223 3000 BR OVC010      BECMG 1301/1303 1200 BR OVC004      PROB30 TEMPO 1302/1306 VRB02KT 0500 FG OVC002      BECMG 1307/1309 3000 BR SCT006 OVC12      BECMG 1310/1312 27005KT 7000 SCT010 BKN018      BECMG 1311/1313 9999 BKN020      TEMPO 1316/1318 27012KT=